Time;durP1;ratioP1;P1;durP2;ratioP2;P2;SDS_P1;SDS_P2;PMS_P1;PMS_P2;Temp;Humidity;BMP_temperature;BMP_pressure;BME280_temperature;BME280_humidity;BME280_pressure;Samples;Min_cycle;Max_cycle;Signal;HPM_P1;HPM_P2
2022/08/19 00:01:38;;;;;;;18.30;16.50;;;17.10;99.90;;;;;;5097626;28;20437;-51
2022/08/19 00:04:11;;;;;;;18.40;16.90;;;17.00;99.90;;;;;;5081079;28;20464;-49
2022/08/19 00:06:39;;;;;;;18.67;16.97;;;17.00;99.90;;;;;;5097347;28;20435;-46
2022/08/19 00:09:09;;;;;;;19.83;17.87;;;17.00;99.90;;;;;;5096698;28;20822;-52
2022/08/19 00:11:37;;;;;;;19.53;17.63;;;17.00;99.90;;;;;;5098029;28;20536;-47
2022/08/19 00:14:06;;;;;;;18.50;16.73;;;17.00;99.90;;;;;;5097641;28;20883;-51
2022/08/19 00:16:34;;;;;;;18.30;16.50;;;17.00;99.90;;;;;;5097470;28;20820;-47
2022/08/19 00:19:01;;;;;;;18.10;16.20;;;17.00;99.90;;;;;;5096920;28;20903;-46
2022/08/19 00:21:30;;;;;;;17.37;15.87;;;16.90;99.90;;;;;;5097502;28;20484;-49
2022/08/19 00:23:58;;;;;;;19.17;17.37;;;16.80;99.90;;;;;;5098101;28;20797;-46
2022/08/19 00:26:26;;;;;;;17.90;16.20;;;16.80;99.90;;;;;;5098065;28;20456;-50
2022/08/19 00:28:53;;;;;;;19.60;17.60;;;16.70;99.90;;;;;;5097413;28;20461;-48
2022/08/19 00:31:20;;;;;;;17.70;16.17;;;16.70;99.90;;;;;;5097710;28;20439;-51
2022/08/19 00:33:49;;;;;;;19.07;17.07;;;16.70;99.90;;;;;;5097946;28;20438;-52
2022/08/19 00:36:16;;;;;;;17.03;15.50;;;16.70;99.90;;;;;;5097176;28;20466;-47
2022/08/19 00:38:48;;;;;;;17.33;15.73;;;16.70;99.90;;;;;;5096487;28;20555;-47
2022/08/19 00:41:21;;;;;;;18.80;16.97;;;16.70;99.90;;;;;;5095737;28;20470;-53
2022/08/19 00:43:58;;;;;;;18.03;16.37;;;16.60;99.90;;;;;;5096901;28;20491;-51
2022/08/19 00:46:26;;;;;;;17.27;15.57;;;16.60;99.90;;;;;;5095190;28;20894;-51
2022/08/19 00:48:53;;;;;;;19.17;17.47;;;16.60;1.00;;;;;;5096156;28;20484;-49
2022/08/19 00:51:23;;;;;;;19.03;17.30;;;16.60;99.90;;;;;;5097614;28;20939;-49
2022/08/19 00:53:52;;;;;;;19.47;17.67;;;16.60;99.90;;;;;;5096868;28;20547;-48
2022/08/19 00:56:21;;;;;;;18.93;17.17;;;16.50;99.90;;;;;;5097045;28;20484;-50
2022/08/19 00:58:51;;;;;;;19.23;17.23;;;16.50;1.00;;;;;;5095988;28;20452;-50
2022/08/19 01:01:19;;;;;;;19.33;17.50;;;16.50;1.00;;;;;;5097226;28;20479;-52
2022/08/19 01:03:48;;;;;;;19.00;17.40;;;16.50;1.00;;;;;;5096719;28;20457;-49
2022/08/19 01:06:19;;;;;;;18.53;16.80;;;16.40;1.00;;;;;;5097098;28;20509;-48
2022/08/19 01:08:47;;;;;;;17.47;15.77;;;16.40;99.90;;;;;;5095429;28;20522;-54
2022/08/19 01:11:16;;;;;;;18.23;16.40;;;16.50;1.00;;;;;;5096377;28;20427;-50
2022/08/19 01:13:43;;;;;;;18.67;16.90;;;16.40;1.00;;;;;;5097236;28;20464;-50
2022/08/19 01:16:12;;;;;;;18.40;16.77;;;16.50;99.90;;;;;;5096529;28;20496;-47
2022/08/19 01:18:42;;;;;;;19.00;17.00;;;16.50;99.90;;;;;;5095874;28;20484;-50
2022/08/19 01:21:18;;;;;;;19.70;16.90;;;16.40;99.90;;;;;;5094863;28;20856;-51
2022/08/19 01:23:49;;;;;;;18.13;16.40;;;16.40;99.90;;;;;;5095040;28;20505;-49
2022/08/19 01:26:19;;;;;;;17.23;15.73;;;16.40;99.90;;;;;;5086274;28;20538;-50
2022/08/19 01:28:50;;;;;;;17.47;15.73;;;16.30;99.90;;;;;;5096069;28;20770;-51
2022/08/19 01:31:22;;;;;;;16.00;14.60;;;16.30;99.90;;;;;;5096406;28;20461;-50
2022/08/19 01:33:49;;;;;;;17.20;15.57;;;16.30;99.90;;;;;;5096105;28;20453;-51
2022/08/19 01:36:25;;;;;;;17.40;15.70;;;16.20;1.00;;;;;;5096997;28;20441;-52
2022/08/19 01:38:54;;;;;;;17.23;15.73;;;16.30;1.00;;;;;;5095094;28;20445;-54
2022/08/19 01:41:23;;;;;;;17.30;15.60;;;16.20;1.00;;;;;;5094425;28;20526;-54
2022/08/19 01:43:50;;;;;;;17.30;15.80;;;16.20;1.00;;;;;;5094719;28;20439;-52
2022/08/19 01:46:18;;;;;;;18.60;17.00;;;16.20;1.00;;;;;;5094765;28;20464;-48
2022/08/19 01:48:47;;;;;;;17.63;15.80;;;16.20;1.00;;;;;;5095045;28;20933;-48
2022/08/19 01:51:16;;;;;;;18.70;17.10;;;16.20;1.00;;;;;;5095212;28;20462;-48
2022/08/19 01:53:44;;;;;;;19.40;16.53;;;16.10;1.00;;;;;;5096059;28;20927;-52
2022/08/19 01:56:15;;;;;;;17.83;16.23;;;16.10;1.00;;;;;;5095790;28;20438;-46
2022/08/19 01:58:48;;;;;;;18.50;16.80;;;16.00;69.30;;;;;;5097311;28;20470;-53
2022/08/19 02:01:15;;;;;;;18.30;16.57;;;16.00;99.90;;;;;;5099987;28;20471;-47
2022/08/19 02:03:42;;;;;;;18.30;16.57;;;16.00;99.90;;;;;;5099972;28;20517;-46
2022/08/19 02:06:10;;;;;;;19.03;17.23;;;16.00;99.90;;;;;;5100565;28;20463;-50
2022/08/19 02:08:39;;;;;;;18.93;17.17;;;16.00;99.90;;;;;;5099517;28;20486;-52
2022/08/19 02:11:08;;;;;;;17.80;16.20;;;16.10;99.90;;;;;;5099408;28;20509;-53
2022/08/19 02:13:36;;;;;;;17.57;15.87;;;16.10;29.40;;;;;;5100253;28;20440;-54
2022/08/19 02:16:04;;;;;;;18.83;17.23;;;16.00;1.00;;;;;;5098961;28;20981;-52
2022/08/19 02:18:31;;;;;;;17.37;15.70;;;16.00;1.00;;;;;;5095892;28;20990;-47
2022/08/19 02:20:58;;;;;;;18.20;16.40;;;16.00;1.00;;;;;;5099629;28;20439;-47
2022/08/19 02:23:26;;;;;;;20.37;18.30;;;15.90;1.00;;;;;;5099974;28;20503;-51
2022/08/19 02:25:54;;;;;;;21.20;19.30;;;16.00;1.00;;;;;;5099497;28;20460;-49
2022/08/19 02:28:26;;;;;;;22.60;20.60;;;15.90;1.00;;;;;;5099332;28;20762;-53
2022/08/19 02:31:00;;;;;;;20.60;18.77;;;16.00;47.90;;;;;;5098804;28;20460;-47
2022/08/19 02:33:27;;;;;;;19.83;18.03;;;16.00;99.90;;;;;;5098759;28;20468;-51
2022/08/19 02:35:55;;;;;;;20.97;18.97;;;15.90;99.90;;;;;;5098950;28;20456;-50
2022/08/19 02:38:27;;;;;;;19.83;18.03;;;15.80;99.90;;;;;;5098988;28;20458;-52
2022/08/19 02:40:56;;;;;;;20.23;18.43;;;15.90;1.00;;;;;;5099204;28;20489;-50
2022/08/19 02:43:28;;;;;;;20.13;18.23;;;15.80;1.00;;;;;;5099559;28;20427;-49
2022/08/19 02:45:57;;;;;;;19.60;17.80;;;15.80;1.00;;;;;;5099129;28;20464;-53
2022/08/19 02:48:28;;;;;;;19.80;17.83;;;15.90;1.00;;;;;;5099292;28;20435;-49
2022/08/19 02:50:55;;;;;;;18.90;17.10;;;15.90;1.00;;;;;;5099324;28;20492;-51
2022/08/19 02:53:24;;;;;;;19.07;17.27;;;16.00;99.90;;;;;;5098753;28;20452;-47
2022/08/19 02:55:52;;;;;;;17.40;15.87;;;15.90;99.90;;;;;;5097994;28;20846;-50
2022/08/19 02:58:20;;;;;;;18.47;16.67;;;15.90;99.90;;;;;;5098109;28;20488;-48
2022/08/19 03:00:49;;;;;;;17.70;16.10;;;15.90;99.90;;;;;;5098674;28;20551;-50
2022/08/19 03:03:21;;;;;;;18.20;16.50;;;15.90;99.90;;;;;;5098991;28;20460;-47
2022/08/19 03:05:49;;;;;;;19.13;17.33;;;15.90;1.00;;;;;;5098460;28;20471;-51
2022/08/19 03:08:17;;;;;;;19.87;17.87;;;16.00;99.90;;;;;;5098700;28;20462;-47
2022/08/19 03:10:46;;;;;;;20.07;18.00;;;16.00;99.90;;;;;;5098527;28;20427;-55
2022/08/19 03:13:15;;;;;;;18.63;16.97;;;15.90;99.90;;;;;;5098121;28;20461;-53
2022/08/19 03:15:44;;;;;;;20.50;18.50;;;15.90;1.00;;;;;;5097551;28;20432;-51
2022/08/19 03:18:14;;;;;;;19.07;17.07;;;15.90;1.00;;;;;;5097091;28;20471;-52
2022/08/19 03:20:44;;;;;;;18.23;16.53;;;15.90;1.00;;;;;;5098011;28;20868;-53
2022/08/19 03:23:13;;;;;;;17.70;16.00;;;15.80;1.00;;;;;;5098261;28;20455;-51
2022/08/19 03:25:42;;;;;;;18.80;17.00;;;15.80;1.00;;;;;;5097782;28;20509;-47
2022/08/19 03:28:11;;;;;;;18.63;16.83;;;15.70;99.90;;;;;;5097861;28;20478;-55
2022/08/19 03:30:43;;;;;;;18.63;16.90;;;15.70;99.90;;;;;;5084606;28;20457;-51
2022/08/19 03:33:12;;;;;;;18.33;16.53;;;15.70;99.90;;;;;;5098671;28;20493;-48
2022/08/19 03:35:40;;;;;;;17.40;15.80;;;15.70;1.00;;;;;;5098633;28;20712;-46
2022/08/19 03:38:12;;;;;;;18.53;16.83;;;15.70;1.00;;;;;;5097377;28;20455;-52
2022/08/19 03:40:39;;;;;;;19.63;17.73;;;15.80;1.00;;;;;;5097268;28;20559;-49
2022/08/19 03:43:08;;;;;;;18.83;17.13;;;15.70;99.90;;;;;;5098079;28;20543;-53
2022/08/19 03:45:35;;;;;;;20.80;18.77;;;15.70;99.90;;;;;;5098328;28;20460;-54
2022/08/19 03:48:03;;;;;;;19.97;18.07;;;15.70;99.90;;;;;;5098123;28;20456;-53
2022/08/19 03:50:31;;;;;;;18.93;17.03;;;15.60;99.90;;;;;;5097790;28;20443;-49
2022/08/19 03:52:58;;;;;;;18.07;16.40;;;15.70;99.90;;;;;;5097999;28;20471;-48
2022/08/19 03:55:28;;;;;;;18.50;16.70;;;15.60;99.90;;;;;;5098268;28;20661;-52
2022/08/19 03:58:00;;;;;;;17.57;15.77;;;15.60;99.90;;;;;;5097625;28;20466;-48
2022/08/19 04:00:27;;;;;;;19.60;17.80;;;15.50;99.90;;;;;;5097411;28;20539;-49
2022/08/19 04:02:54;;;;;;;19.87;17.97;;;15.60;99.90;;;;;;5098159;28;20807;-51
2022/08/19 04:05:22;;;;;;;19.03;17.10;;;15.50;99.90;;;;;;5098311;28;20931;-53
2022/08/19 04:07:49;;;;;;;18.30;16.70;;;15.50;1.00;;;;;;5098275;28;20818;-54
2022/08/19 04:10:19;;;;;;;19.40;17.70;;;15.60;99.90;;;;;;5097229;28;20471;-48
2022/08/19 04:12:51;;;;;;;16.70;15.10;;;15.50;99.90;;;;;;5097039;28;20514;-48
2022/08/19 04:15:21;;;;;;;17.73;16.03;;;15.50;99.90;;;;;;5097844;28;20530;-50
2022/08/19 04:17:49;;;;;;;18.43;16.73;;;15.50;99.90;;;;;;5097466;28;20467;-50
2022/08/19 04:20:16;;;;;;;18.20;16.40;;;15.50;99.90;;;;;;5097302;28;20431;-50
2022/08/19 04:22:44;;;;;;;17.83;16.13;;;15.60;99.90;;;;;;5096667;28;20463;-50
2022/08/19 04:25:11;;;;;;;19.10;17.40;;;15.50;93.40;;;;;;5097270;28;20445;-47
2022/08/19 04:27:39;;;;;;;20.80;18.73;;;15.60;99.90;;;;;;5096952;28;20547;-49
2022/08/19 04:30:11;;;;;;;18.47;16.77;;;15.60;99.90;;;;;;5093136;28;20476;-51
2022/08/19 04:32:40;;;;;;;19.40;17.60;;;15.60;99.90;;;;;;5097583;28;20781;-50
2022/08/19 04:35:09;;;;;;;19.30;17.50;;;15.60;99.90;;;;;;5096048;28;20737;-47
2022/08/19 04:37:36;;;;;;;19.63;17.73;;;15.50;99.90;;;;;;5095290;28;20549;-51
2022/08/19 04:42:51;;;;;;;18.23;16.53;;;15.50;1.00;;;;;;5095375;28;20443;-53
2022/08/19 04:45:29;;;;;;;18.53;16.73;;;15.50;1.00;;;;;;5086592;28;20560;-53
2022/08/19 04:47:58;;;;;;;19.80;17.23;;;15.60;99.90;;;;;;5095871;28;20457;-52
2022/08/19 04:50:25;;;;;;;17.97;16.27;;;15.70;1.00;;;;;;5095760;28;20443;-50
2022/08/19 04:52:55;;;;;;;20.60;18.57;;;15.70;1.00;;;;;;5095393;28;20435;-52
2022/08/19 04:55:25;;;;;;;20.40;18.50;;;15.80;1.00;;;;;;5095137;28;20800;-52
2022/08/19 04:57:52;;;;;;;20.00;18.10;;;15.80;99.90;;;;;;5089829;28;20971;-49
2022/08/19 05:00:21;;;;;;;20.40;18.30;;;15.80;1.00;;;;;;5085623;28;20460;-50
2022/08/19 05:02:49;;;;;;;20.90;18.83;;;15.80;31.00;;;;;;5091196;28;20905;-50
2022/08/19 05:05:19;;;;;;;19.67;17.87;;;15.80;1.00;;;;;;5090842;28;21005;-49
2022/08/19 05:07:47;;;;;;;22.03;19.83;;;15.90;1.00;;;;;;5094217;28;20436;-50
2022/08/19 05:10:15;;;;;;;20.03;18.13;;;16.00;1.00;;;;;;5094614;28;21132;-48
2022/08/19 05:12:44;;;;;;;20.10;18.00;;;16.00;1.00;;;;;;5093761;28;20432;-47
2022/08/19 05:15:12;;;;;;;19.60;17.63;;;16.00;1.00;;;;;;5094394;28;20854;-53
2022/08/19 05:22:31;;;;;;;19.77;17.93;;;15.90;99.90;;;;;;5094346;28;20492;-48
2022/08/19 05:23:34;;;;;;;19.23;17.37;;;16.20;99.90;;;;;;5023361;28;20418;-53
2022/08/19 05:26:01;;;;;;;20.00;18.10;;;16.40;99.90;;;;;;5027071;28;20439;-51
2022/08/19 05:28:28;;;;;;;18.53;16.63;;;16.50;1.00;;;;;;5056278;28;20423;-53
2022/08/19 05:31:01;;;;;;;19.27;17.43;;;16.60;99.90;;;;;;5087564;28;20443;-52
2022/08/19 05:33:31;;;;;;;20.80;16.53;;;16.50;1.00;;;;;;5095767;28;20475;-50
2022/08/19 05:35:58;;;;;;;19.00;17.10;;;16.50;1.00;;;;;;5094037;28;20552;-51
2022/08/19 05:38:27;;;;;;;19.23;16.53;;;16.50;99.90;;;;;;5098655;28;20473;-51
2022/08/19 05:40:54;;;;;;;18.63;16.63;;;16.50;99.90;;;;;;5096460;28;20438;-48
2022/08/19 05:43:22;;;;;;;18.67;16.87;;;16.60;99.90;;;;;;5093974;28;20431;-53
2022/08/19 05:45:50;;;;;;;17.20;15.60;;;16.60;99.90;;;;;;5099195;28;20459;-54
2022/08/19 05:48:20;;;;;;;19.10;17.30;;;16.60;99.90;;;;;;5098503;28;20456;-54
2022/08/19 05:50:50;;;;;;;16.70;15.30;;;16.60;99.90;;;;;;5100543;28;20747;-54
2022/08/19 05:53:17;;;;;;;17.80;16.10;;;16.60;99.90;;;;;;5095501;28;20509;-48
2022/08/19 05:55:45;;;;;;;21.63;17.90;;;16.70;99.90;;;;;;5100730;28;20435;-54
2022/08/19 05:58:12;;;;;;;19.93;18.03;;;16.80;99.90;;;;;;5100556;28;20946;-50
2022/08/19 06:00:40;;;;;;;19.80;17.80;;;16.80;99.90;;;;;;5099839;28;20449;-51
2022/08/19 06:03:08;;;;;;;18.00;16.30;;;16.80;99.90;;;;;;5100672;28;20461;-48
2022/08/19 06:05:35;;;;;;;19.40;17.50;;;16.90;99.90;;;;;;5099349;28;20435;-55
2022/08/19 06:08:05;;;;;;;18.37;16.47;;;16.90;99.90;;;;;;5100755;28;20438;-51
2022/08/19 06:10:32;;;;;;;18.20;16.33;;;17.10;99.90;;;;;;5099890;28;20490;-50
2022/08/19 06:12:59;;;;;;;19.80;17.70;;;17.20;99.90;;;;;;5100360;28;20488;-52
2022/08/19 06:15:28;;;;;;;18.87;17.03;;;17.30;99.90;;;;;;5099920;28;20498;-48
2022/08/19 06:17:55;;;;;;;20.53;18.37;;;17.30;96.70;;;;;;5114876;28;20469;-53
2022/08/19 06:20:23;;;;;;;18.80;17.10;;;17.50;99.90;;;;;;5100323;28;20943;-53
2022/08/19 06:22:51;;;;;;;19.50;17.63;;;17.60;99.90;;;;;;5100370;28;20436;-53
2022/08/19 06:25:20;;;;;;;20.17;18.20;;;17.70;76.30;;;;;;5099750;28;20439;-56
2022/08/19 06:27:50;;;;;;;20.10;18.20;;;17.80;39.40;;;;;;5100540;28;20435;-50
2022/08/19 06:30:18;;;;;;;19.67;17.87;;;17.90;1.00;;;;;;5098311;28;20843;-56
2022/08/19 06:32:47;;;;;;;20.10;18.10;;;18.10;1.00;;;;;;5097569;28;20452;-50
2022/08/19 06:35:17;;;;;;;19.40;17.60;;;18.20;1.00;;;;;;5098536;28;20432;-51
2022/08/19 06:37:48;;;;;;;18.60;16.80;;;18.40;1.00;;;;;;5080095;28;20526;-54
2022/08/19 06:40:15;;;;;;;17.97;16.17;;;18.60;1.00;;;;;;5089271;28;20880;-53
2022/08/19 06:42:44;;;;;;;18.63;16.93;;;18.70;1.00;;;;;;5099578;28;20461;-49
2022/08/19 06:45:12;;;;;;;17.33;15.80;;;18.80;1.00;;;;;;5098593;28;20525;-56
2022/08/19 06:47:48;;;;;;;18.10;16.50;;;18.90;1.00;;;;;;5099774;28;20455;-51
2022/08/19 06:50:15;;;;;;;19.07;17.07;;;18.90;1.00;;;;;;5099097;28;20765;-51
2022/08/19 06:52:42;;;;;;;19.30;17.23;;;19.00;1.00;;;;;;5099526;28;20439;-50
2022/08/19 06:55:10;;;;;;;20.13;18.10;;;19.10;1.00;;;;;;5099169;28;20802;-55
2022/08/19 06:57:37;;;;;;;18.90;17.10;;;19.30;1.00;;;;;;5099279;28;20526;-57
2022/08/19 07:00:11;;;;;;;19.33;17.40;;;19.50;1.00;;;;;;5099713;28;20907;-57
2022/08/19 07:02:38;;;;;;;23.90;21.40;;;19.60;1.00;;;;;;5098091;28;20447;-56
2022/08/19 07:05:10;;;;;;;21.87;19.87;;;19.70;1.00;;;;;;5099453;28;20479;-57
2022/08/19 07:07:42;;;;;;;20.73;18.67;;;19.80;1.00;;;;;;5098737;28;20431;-57
2022/08/19 07:10:10;;;;;;;23.70;21.40;;;20.00;1.00;;;;;;5099687;28;20460;-56
2022/08/19 07:12:38;;;;;;;23.97;21.60;;;20.30;1.00;;;;;;5097062;28;20535;-54
2022/08/19 07:15:12;;;;;;;22.10;20.03;;;20.60;1.00;;;;;;5099131;28;20551;-56
2022/08/19 07:17:43;;;;;;;23.73;21.43;;;20.90;1.00;;;;;;5097960;28;20458;-55
2022/08/19 07:20:12;;;;;;;26.73;24.23;;;21.00;1.00;;;;;;5098853;28;20463;-56
2022/08/19 07:22:40;;;;;;;23.50;21.37;;;21.20;1.00;;;;;;5099222;28;20555;-54
2022/08/19 07:25:08;;;;;;;25.23;22.53;;;21.20;99.90;;;;;;5099294;28;20467;-56
2022/08/19 07:27:36;;;;;;;24.43;21.97;;;21.50;1.00;;;;;;5099016;28;20488;-57
2022/08/19 07:30:07;;;;;;;25.57;23.17;;;21.50;99.90;;;;;;5099082;28;20505;-55
2022/08/19 07:32:36;;;;;;;23.63;21.23;;;21.60;99.90;;;;;;5097772;28;20558;-58
2022/08/19 07:35:05;;;;;;;25.30;22.80;;;21.90;99.90;;;;;;5098311;28;20464;-56
2022/08/19 07:37:36;;;;;;;22.70;20.63;;;21.90;99.90;;;;;;5097498;28;20907;-54
2022/08/19 07:40:05;;;;;;;27.37;24.53;;;21.80;99.90;;;;;;5096665;28;20488;-55
2022/08/19 07:42:34;;;;;;;26.43;23.67;;;21.90;99.90;;;;;;5097493;28;20518;-57
2022/08/19 07:45:02;;;;;;;28.70;25.67;;;22.10;99.90;;;;;;5097446;28;20464;-54
2022/08/19 07:47:30;;;;;;;28.53;25.70;;;22.10;99.90;;;;;;5097808;28;20552;-56
2022/08/19 07:50:00;;;;;;;28.27;25.67;;;22.30;99.90;;;;;;5097837;28;20479;-58
2022/08/19 07:52:28;;;;;;;27.77;25.07;;;22.40;99.90;;;;;;5097621;28;20552;-54
2022/08/19 07:54:55;;;;;;;27.07;24.50;;;22.60;99.90;;;;;;5077512;28;20861;-58
2022/08/19 07:57:23;;;;;;;27.97;25.27;;;22.60;99.90;;;;;;5076755;28;20457;-58
2022/08/19 07:59:50;;;;;;;28.63;25.80;;;22.50;99.90;;;;;;5088650;28;20463;-55
2022/08/19 08:02:21;;;;;;;27.43;24.93;;;22.60;99.90;;;;;;5098332;28;20456;-49
2022/08/19 08:10:26;;;;;;;26.80;24.20;;;22.90;99.90;;;;;;5096568;28;20455;-55
2022/08/19 08:12:55;;;;;;;26.77;24.13;;;23.00;99.90;;;;;;5098111;28;20559;-56
2022/08/19 08:15:23;;;;;;;27.70;25.10;;;23.30;99.90;;;;;;5097700;28;20957;-57
2022/08/19 08:17:50;;;;;;;27.77;25.10;;;23.40;99.90;;;;;;5097906;28;20458;-58
2022/08/19 08:20:22;;;;;;;29.00;26.17;;;23.60;99.90;;;;;;5097595;28;20547;-57
2022/08/19 08:25:37;;;;;;;28.70;25.87;;;23.70;99.90;;;;;;5097491;28;20521;-57
2022/08/19 08:28:07;;;;;;;35.13;31.77;;;23.50;99.90;;;;;;5097383;28;20470;-56
2022/08/19 08:30:35;;;;;;;35.03;31.57;;;23.50;99.90;;;;;;5096227;28;20462;-55
2022/08/19 08:33:06;;;;;;;32.90;29.67;;;23.40;99.90;;;;;;5097678;28;20460;-56
2022/08/19 08:35:34;;;;;;;31.03;28.13;;;23.70;99.90;;;;;;5096853;28;20554;-55
2022/08/19 08:38:03;;;;;;;31.77;28.87;;;23.80;99.90;;;;;;5096713;28;20563;-55
2022/08/19 08:40:43;;;;;;;34.47;31.13;;;24.00;99.90;;;;;;5096779;28;20488;-56
2022/08/19 08:43:26;;;;;;;36.97;33.17;;;24.20;99.90;;;;;;5096519;28;20460;-56
2022/08/19 08:45:57;;;;;;;35.67;32.27;;;23.90;99.90;;;;;;5096106;28;20435;-57
2022/08/19 08:48:33;;;;;;;35.47;32.07;;;23.70;99.90;;;;;;5097452;28;20466;-58
2022/08/19 08:51:19;;;;;;;37.47;33.70;;;23.80;99.90;;;;;;5096997;28;20466;-55
2022/08/19 08:53:51;;;;;;;45.53;41.33;;;24.00;99.90;;;;;;5097615;28;20480;-55
2022/08/19 08:56:19;;;;;;;52.93;47.93;;;24.20;99.90;;;;;;5096447;28;20467;-57
2022/08/19 08:58:57;;;;;;;54.67;49.37;;;24.10;99.90;;;;;;5095947;28;20460;-57
2022/08/19 09:01:25;;;;;;;52.47;47.57;;;24.20;99.90;;;;;;5097060;28;20551;-55
2022/08/19 09:03:53;;;;;;;46.20;41.90;;;24.40;99.90;;;;;;5097838;28;20439;-57
2022/08/19 09:06:30;;;;;;;45.97;41.37;;;24.70;99.90;;;;;;5096859;28;20929;-56
2022/08/19 09:09:06;;;;;;;44.97;40.37;;;24.50;99.90;;;;;;5097203;28;20506;-55
2022/08/19 09:11:51;;;;;;;45.23;40.83;;;24.30;99.90;;;;;;5097371;28;20471;-58
2022/08/19 09:14:35;;;;;;;41.80;38.03;;;24.00;99.90;;;;;;5096483;28;20478;-58
2022/08/19 09:17:07;;;;;;;39.77;35.93;;;24.70;99.90;;;;;;5096576;28;20464;-58
2022/08/19 09:19:36;;;;;;;39.27;35.67;;;24.80;99.90;;;;;;5097100;28;20466;-58
2022/08/19 09:22:05;;;;;;;36.03;32.83;;;24.90;99.90;;;;;;5096955;28;20558;-53
2022/08/19 09:24:35;;;;;;;34.77;31.47;;;25.00;99.90;;;;;;5097252;28;20464;-57
2022/08/19 09:27:03;;;;;;;28.70;26.00;;;25.60;99.90;;;;;;5095224;28;20453;-56
2022/08/19 09:29:31;;;;;;;27.57;25.10;;;25.80;99.90;;;;;;5096820;28;20427;-58
2022/08/19 09:31:58;;;;;;;21.77;19.80;;;26.20;99.90;;;;;;5096662;28;20789;-58
2022/08/19 09:34:29;;;;;;;26.33;23.97;;;26.70;99.90;;;;;;5096986;28;20492;-57
2022/08/19 09:36:59;;;;;;;25.50;23.13;;;27.10;99.90;;;;;;5096768;28;20460;-59
2022/08/19 09:39:36;;;;;;;23.87;21.43;;;27.10;99.90;;;;;;5097251;28;20470;-58
2022/08/19 09:42:04;;;;;;;25.67;23.47;;;27.20;99.90;;;;;;5097027;28;20886;-58
2022/08/19 09:44:34;;;;;;;26.60;24.10;;;27.40;99.90;;;;;;5096973;28;20782;-57
2022/08/19 09:47:04;;;;;;;23.37;21.30;;;27.10;99.90;;;;;;5097206;28;20750;-58
2022/08/19 09:49:32;;;;;;;24.97;22.77;;;27.20;99.90;;;;;;5096027;28;20788;-58
2022/08/19 09:51:59;;;;;;;23.60;21.70;;;27.40;99.90;;;;;;5097217;28;20521;-57
2022/08/19 09:54:28;;;;;;;24.60;22.40;;;27.80;99.90;;;;;;5096883;28;20441;-59
2022/08/19 09:57:00;;;;;;;22.33;20.43;;;27.60;99.90;;;;;;5096923;28;20902;-56
2022/08/19 09:59:30;;;;;;;20.93;19.13;;;26.80;99.90;;;;;;5096772;28;20920;-58
2022/08/19 10:02:05;;;;;;;21.17;19.27;;;26.80;99.90;;;;;;5097202;28;20460;-57
2022/08/19 10:07:21;;;;;;;21.30;19.23;;;28.10;99.90;;;;;;5096599;28;20431;-58
2022/08/19 10:09:51;;;;;;;20.70;19.00;;;27.60;99.90;;;;;;5096619;28;20461;-58
2022/08/19 10:12:21;;;;;;;20.77;18.87;;;27.80;99.90;;;;;;5096591;28;20832;-57
2022/08/19 10:14:53;;;;;;;19.90;18.10;;;28.10;99.90;;;;;;5095873;28;20471;-58
2022/08/19 10:17:20;;;;;;;16.17;14.67;;;28.30;99.90;;;;;;5096340;28;20434;-55
2022/08/19 10:19:47;;;;;;;19.17;17.57;;;28.50;99.90;;;;;;5097955;28;20522;-57
2022/08/19 10:22:18;;;;;;;19.50;17.90;;;28.20;99.90;;;;;;5100267;28;20464;-57
2022/08/19 10:24:49;;;;;;;19.10;17.57;;;28.20;99.90;;;;;;5099920;28;20907;-57
2022/08/19 10:27:19;;;;;;;19.43;17.83;;;28.90;99.90;;;;;;5100506;28;20437;-55
2022/08/19 10:29:48;;;;;;;20.57;18.70;;;28.70;99.90;;;;;;5098502;28;20984;-58
2022/08/19 10:32:15;;;;;;;22.10;20.20;;;28.10;99.90;;;;;;5099039;28;20471;-57
2022/08/19 10:34:48;;;;;;;22.40;20.27;;;27.40;99.90;;;;;;5099921;28;20537;-55
2022/08/19 10:37:17;;;;;;;22.50;20.40;;;27.60;99.90;;;;;;5099283;28;20463;-57
2022/08/19 10:39:48;;;;;;;20.17;18.47;;;27.00;99.90;;;;;;5099293;28;20465;-56
2022/08/19 10:42:18;;;;;;;23.80;21.50;;;26.70;99.90;;;;;;5100083;28;20456;-56
2022/08/19 10:44:47;;;;;;;20.13;18.23;;;26.50;99.90;;;;;;5098229;28;20471;-58
2022/08/19 10:47:17;;;;;;;21.03;18.93;;;26.50;99.90;;;;;;5097761;28;20503;-58
2022/08/19 10:52:40;;;;;;;17.77;16.27;;;28.30;99.90;;;;;;5095169;28;20443;-58
2022/08/19 10:58:00;;;;;;;19.70;18.20;;;29.00;99.90;;;;;;5099744;28;20435;-58
2022/08/19 11:00:30;;;;;;;20.20;18.40;;;29.60;99.90;;;;;;5098678;28;20463;-56
2022/08/19 11:03:00;;;;;;;17.20;15.77;;;29.50;99.90;;;;;;5099862;28;20458;-58
2022/08/19 11:05:27;;;;;;;18.27;16.67;;;28.60;99.90;;;;;;5098402;28;20467;-53
2022/08/19 11:07:55;;;;;;;15.60;14.30;;;28.90;99.90;;;;;;5097897;28;20491;-58
2022/08/19 11:10:23;;;;;;;18.70;17.10;;;29.00;99.90;;;;;;5085278;28;20514;-57
2022/08/19 11:12:52;;;;;;;20.30;18.50;;;29.90;99.90;;;;;;5088408;28;20507;-58
2022/08/19 11:15:21;;;;;;;22.90;20.70;;;30.50;99.90;;;;;;5098904;28;20460;-58
2022/08/19 11:17:48;;;;;;;17.67;16.00;;;30.20;99.90;;;;;;5098850;28;20463;-58
2022/08/19 11:20:16;;;;;;;17.80;16.30;;;29.20;99.90;;;;;;5099366;28;20583;-51
2022/08/19 11:22:44;;;;;;;17.70;16.20;;;28.60;99.90;;;;;;5098577;28;20464;-57
2022/08/19 11:25:12;;;;;;;20.03;18.23;;;28.50;99.90;;;;;;5099037;28;20452;-59
2022/08/19 11:27:42;;;;;;;16.57;15.03;;;28.80;99.90;;;;;;5099388;28;20988;-58
2022/08/19 11:30:15;;;;;;;17.33;15.90;;;28.50;99.90;;;;;;5098018;28;20535;-56
2022/08/19 11:32:44;;;;;;;21.23;19.30;;;29.50;99.90;;;;;;5098372;28;20464;-58
2022/08/19 11:35:13;;;;;;;19.47;17.33;;;29.70;99.90;;;;;;5099159;28;20439;-58
2022/08/19 11:37:42;;;;;;;18.40;16.70;;;29.70;99.90;;;;;;5098014;28;20563;-59
2022/08/19 11:40:15;;;;;;;20.80;19.00;;;29.90;99.90;;;;;;5099490;28;20519;-56
2022/08/19 11:43:00;;;;;;;20.40;18.33;;;29.00;99.90;;;;;;5097932;28;20460;-55
2022/08/19 11:45:31;;;;;;;19.43;17.93;;;29.30;99.90;;;;;;5098501;28;20555;-55
2022/08/19 11:48:03;;;;;;;18.47;17.07;;;29.20;99.90;;;;;;5098295;28;20543;-54
2022/08/19 11:50:32;;;;;;;10.27;9.27;;;28.70;99.90;;;;;;5098498;28;20443;-53
2022/08/19 11:53:02;;;;;;;12.33;11.27;;;28.70;99.90;;;;;;5097222;28;20456;-51
2022/08/19 11:55:29;;;;;;;11.63;10.50;;;29.30;99.90;;;;;;5097068;28;20467;-51
2022/08/19 11:57:56;;;;;;;11.30;10.50;;;30.30;99.90;;;;;;5097462;28;20439;-50
2022/08/19 12:00:24;;;;;;;15.60;14.23;;;30.30;99.90;;;;;;5098235;28;20474;-55
2022/08/19 12:02:51;;;;;;;16.87;15.47;;;30.50;99.90;;;;;;5094657;28;20547;-54
2022/08/19 12:05:20;;;;;;;15.60;14.30;;;30.80;99.90;;;;;;5096763;28;20951;-54
2022/08/19 12:07:51;;;;;;;15.93;14.63;;;31.80;99.90;;;;;;5077106;28;20468;-54
2022/08/19 12:10:18;;;;;;;19.50;17.60;;;31.90;99.90;;;;;;5077818;28;20432;-57
2022/08/19 12:12:46;;;;;;;19.07;17.47;;;30.90;99.90;;;;;;5076360;28;20555;-49
2022/08/19 12:15:14;;;;;;;16.87;15.53;;;30.90;99.90;;;;;;5097595;28;20529;-49
2022/08/19 12:17:49;;;;;;;12.87;11.57;;;31.30;99.90;;;;;;5097965;28;20789;-49
2022/08/19 12:20:17;;;;;;;13.57;12.37;;;31.50;99.90;;;;;;5098231;28;21088;-55
2022/08/19 12:22:48;;;;;;;10.47;9.67;;;31.70;99.90;;;;;;5097916;28;20441;-53
2022/08/19 12:25:17;;;;;;;13.47;12.33;;;31.60;99.90;;;;;;5096776;28;20550;-52
2022/08/19 12:27:51;;;;;;;12.33;11.50;;;31.90;99.90;;;;;;5097653;28;20452;-55
2022/08/19 12:30:20;;;;;;;12.10;11.00;;;32.10;99.90;;;;;;5092051;28;20468;-56
2022/08/19 12:32:51;;;;;;;12.90;11.80;;;32.30;99.90;;;;;;5075689;28;20556;-55
2022/08/19 12:35:20;;;;;;;13.30;12.23;;;32.10;99.90;;;;;;5086634;28;20461;-52
2022/08/19 12:37:50;;;;;;;12.90;11.70;;;31.50;99.90;;;;;;5098074;28;20459;-57
2022/08/19 12:40:19;;;;;;;12.97;11.80;;;30.90;99.90;;;;;;5097353;28;20484;-56
2022/08/19 12:42:50;;;;;;;11.90;10.90;;;29.00;99.90;;;;;;5097068;28;20464;-57
2022/08/19 12:45:18;;;;;;;11.83;10.93;;;29.20;99.90;;;;;;5097011;28;20460;-55
2022/08/19 12:47:47;;;;;;;9.50;8.70;;;29.40;99.90;;;;;;5097910;28;20827;-55
2022/08/19 12:50:14;;;;;;;10.20;9.30;;;29.60;99.90;;;;;;5093308;28;20468;-56
2022/08/19 12:52:46;;;;;;;10.90;9.97;;;30.40;99.90;;;;;;5097280;28;20461;-56
2022/08/19 12:55:15;;;;;;;8.40;7.60;;;30.40;99.90;;;;;;5095978;28;20460;-56
2022/08/19 12:57:43;;;;;;;8.40;7.70;;;31.10;99.90;;;;;;5077749;28;20439;-53
2022/08/19 13:00:20;;;;;;;7.63;6.93;;;31.40;99.90;;;;;;5083574;28;20793;-57
2022/08/19 13:02:50;;;;;;;6.60;6.07;;;31.60;99.90;;;;;;5097187;28;20460;-59
2022/08/19 13:05:22;;;;;;;6.20;5.80;;;32.20;99.90;;;;;;5097609;28;20915;-56